KFAM

Farmington Regional Airport

Farmington, Missouri, USA
METAR KFAM 241456Z AUTO 14007KT 10SM FEW001 SCT075 26/22 A2996 RMK AO2 SLP135 T02610217 51009
Observed Flight Rules
Jun-24 @ 14:56 UTC (9 minutes ago) Visual Flight Rules
Wind Visibility Clouds
140° at 7 knots 10 miles
  • Few at 100' AGL
  • Scattered at 7,500' AGL
Temperatures Readings
Current 26°C / 79°F
Dewpoint 22°C / 72°F
Humidity 79%
Altimeter 29.96" Hg
Pressure 1013.5 hPa
Elevation 288
METAR KFAM 241456Z AUTO 14007KT 10SM FEW001 SCT075 26/22 A2996 RMK AO2 SLP135 T02610217 51009
Observed Flight Rules
Jun-24 @ 14:56 UTC
(9 minutes ago)
VFR
Wind Visibility
140° at 7 knots 10 miles
Clouds
  • Few at 100' AGL
  • Scattered at 7,500' AGL
Temperature Dewpoint
26°C / 79°F 22°C / 72°F
Humidity Altimeter Pressure
79% 29.96" Hg 1013.5 hPa